createdAt,value
2022-09-20T00:04:30.478Z,148307.34
2022-09-20T00:09:36.286Z,148304.75
2022-09-20T00:14:40.580Z,148312.47
2022-09-20T00:19:44.886Z,148317.66
2022-09-20T00:24:50.692Z,148286.78
2022-09-20T00:29:55.508Z,148271.31
2022-09-20T00:35:10.377Z,148282.88
2022-09-20T00:40:20.887Z,148275.22
2022-09-20T00:45:27.363Z,148281.59
2022-09-20T00:50:38.439Z,148290.63
2022-09-20T00:55:49.039Z,148254.63
2022-09-20T01:00:55.520Z,148289.34
2022-09-20T01:06:03.618Z,148300.91
2022-09-20T01:11:09.756Z,148291.91
2022-09-20T01:16:16.563Z,148293.19
2022-09-20T01:21:21.571Z,148277.78
2022-09-20T01:26:56.463Z,148288.06
2022-09-20T01:32:05.486Z,148277.78
2022-09-20T01:37:16.397Z,148271.31
2022-09-20T01:42:27.255Z,148318.94
2022-09-20T01:47:40.545Z,148288.06
2022-09-20T01:53:18.346Z,148288.06
2022-09-20T01:59:27.060Z,148311.19
2022-09-20T02:04:59.227Z,148338.19
2022-09-20T02:10:39.961Z,148326.59
2022-09-20T02:16:29.902Z,148289.34
2022-09-20T02:21:42.241Z,148290.63
2022-09-20T02:27:01.426Z,148262.31
2022-09-20T02:32:25.180Z,148285.50
2022-09-20T02:37:59.186Z,148327.88
2022-09-20T02:43:12.544Z,148307.34
2022-09-20T02:48:25.872Z,148294.47
2022-09-20T02:53:41.817Z,148218.59
2022-09-20T02:58:56.622Z,148293.19
2022-09-20T03:04:16.184Z,148268.75
2022-09-20T03:09:35.725Z,148281.59
2022-09-20T03:14:47.282Z,148275.22
2022-09-20T03:20:15.034Z,148236.63
2022-09-20T03:25:41.230Z,148214.75
2022-09-20T03:31:00.204Z,148252.03
2022-09-20T03:36:16.838Z,148236.63
2022-09-20T03:41:37.867Z,148261.03
2022-09-20T03:46:47.530Z,148241.78
2022-09-20T03:51:57.678Z,148271.31
2022-09-20T03:57:30.271Z,148231.50
2022-09-20T04:02:55.436Z,148240.44
2022-09-20T04:08:14.205Z,148261.03
2022-09-20T04:13:38.830Z,148304.75
2022-09-20T04:18:51.875Z,148281.59
2022-09-20T04:24:02.767Z,148227.59
2022-09-20T04:29:23.187Z,148230.16
2022-09-20T04:34:48.559Z,148264.91
2022-09-20T04:40:01.510Z,148253.34
2022-09-20T04:45:39.408Z,148226.31
2022-09-20T04:51:26.632Z,148227.59
2022-09-20T04:56:50.678Z,148209.59
2022-09-20T05:02:30.285Z,148226.31
2022-09-20T05:08:19.303Z,148241.78
2022-09-20T05:13:37.815Z,148178.72
2022-09-20T05:19:05.332Z,148206.97
2022-09-20T05:24:36.068Z,148241.78
2022-09-20T05:29:50.465Z,148249.47
2022-09-20T05:35:03.356Z,148303.47
2022-09-20T05:40:24.614Z,148335.63
2022-09-20T05:45:50.449Z,148318.94
2022-09-20T05:51:03.654Z,148347.19
2022-09-20T05:56:19.997Z,148308.63
2022-09-20T06:01:29.633Z,148316.31
2022-09-20T06:06:39.946Z,148344.63
2022-09-20T06:12:05.291Z,148338.19
2022-09-20T06:17:24.851Z,148393.53
2022-09-20T06:22:33.098Z,148459.16
2022-09-20T06:27:44.619Z,148437.28
2022-09-20T06:32:56.871Z,148424.38
2022-09-20T06:38:33.130Z,148541.47
2022-09-20T06:43:42.081Z,148508.00
2022-09-20T06:48:48.175Z,148545.38
2022-09-20T06:53:53.194Z,148519.59
2022-09-20T06:59:00.015Z,148535.06
2022-09-20T07:04:05.474Z,148481.00
2022-09-20T07:09:12.738Z,148527.34
2022-09-20T07:14:20.295Z,148451.41
2022-09-20T07:19:24.838Z,148339.50
2022-09-20T07:24:33.460Z,148437.28
2022-09-20T07:29:41.287Z,148457.88
2022-09-20T07:34:47.841Z,148393.53
2022-09-20T07:39:52.344Z,148402.50
2022-09-20T07:44:58.583Z,148379.34
2022-09-20T07:50:04.403Z,148366.50
2022-09-20T07:55:09.879Z,148426.97
2022-09-20T08:00:17.602Z,148488.69
2022-09-20T08:05:21.872Z,148608.41
2022-09-20T08:10:27.506Z,148582.66
2022-09-20T08:15:33.108Z,148625.16
2022-09-20T08:20:38.939Z,148589.13
2022-09-20T08:25:43.526Z,148666.34
2022-09-20T08:30:49.420Z,148701.16
2022-09-20T08:35:57.837Z,148710.19
2022-09-20T08:41:06.097Z,148752.69
2022-09-20T08:46:23.403Z,148802.88
2022-09-20T08:51:31.824Z,148725.63
2022-09-20T08:56:38.343Z,148702.44
2022-09-20T09:01:44.954Z,148792.63
2022-09-20T09:06:51.245Z,148851.84
2022-09-20T09:11:59.090Z,148786.16
2022-09-20T09:17:05.778Z,148805.50
2022-09-20T09:22:10.634Z,149033.56
2022-09-20T09:27:18.032Z,149208.94
2022-09-20T09:32:29.490Z,149150.94
2022-09-20T09:37:34.788Z,148978.16
2022-09-20T09:42:39.452Z,149092.88
2022-09-20T09:47:46.752Z,149167.66
2022-09-20T09:53:00.770Z,149148.31
2022-09-20T09:58:16.340Z,149144.47
2022-09-20T10:03:47.333Z,149558.69
2022-09-20T10:09:10.068Z,149646.47
2022-09-20T10:14:26.166Z,149879.09
2022-09-20T10:19:46.892Z,149827.38
2022-09-20T10:25:03.240Z,149668.44
2022-09-20T10:30:14.219Z,149507.09
2022-09-20T10:35:38.535Z,149489.00
2022-09-20T10:41:13.615Z,149279.91
2022-09-20T10:46:32.994Z,149202.47
2022-09-20T10:51:43.560Z,149129.00
2022-09-20T10:56:50.826Z,149061.88
2022-09-20T11:02:15.194Z,149143.19
2022-09-20T11:07:30.924Z,149323.78
2022-09-20T11:12:42.920Z,149532.88
2022-09-20T11:17:57.044Z,149610.34
2022-09-20T11:23:08.066Z,149725.31
2022-09-20T11:28:20.854Z,149788.63
2022-09-20T11:33:30.463Z,149725.31
2022-09-20T11:38:41.161Z,149839.03
2022-09-20T11:43:47.372Z,149708.50
2022-09-20T11:48:56.972Z,150034.19
2022-09-20T11:54:29.278Z,149870.03
2022-09-20T11:59:37.374Z,149775.69
2022-09-20T12:04:48.355Z,150041.97
2022-09-20T12:10:01.023Z,150039.38
2022-09-20T12:15:09.600Z,149832.59
2022-09-20T12:20:54.047Z,149721.41
2022-09-20T12:26:06.149Z,150110.53
2022-09-20T12:31:43.254Z,150224.38
2022-09-20T12:42:38.092Z,150480.63
2022-09-20T12:47:52.791Z,150531.13
2022-09-20T12:52:59.276Z,150070.44
2022-09-20T12:58:11.990Z,150142.84
2022-09-20T13:03:32.238Z,150236.00
2022-09-20T13:08:43.360Z,150370.59
2022-09-20T13:13:53.151Z,150428.84
2022-09-20T13:19:06.226Z,150538.91
2022-09-20T13:24:17.632Z,150408.16
2022-09-20T13:29:29.846Z,150441.81
2022-09-20T13:34:34.817Z,150316.22
2022-09-20T13:39:39.821Z,150453.47
2022-09-20T13:44:46.296Z,150580.31
2022-09-20T13:49:51.090Z,150768.22
2022-09-20T13:54:56.959Z,151114.38
2022-09-20T14:00:04.011Z,151202.63
2022-09-20T14:05:20.054Z,151381.69
2022-09-20T14:10:34.181Z,151619.34
2022-09-20T14:15:43.153Z,151502.47
2022-09-20T14:20:48.320Z,151636.19
2022-09-20T14:26:11.072Z,150971.69
2022-09-20T14:31:22.311Z,150290.34
2022-09-20T14:36:29.605Z,149986.38
2022-09-20T14:41:37.822Z,149954.06
2022-09-20T14:46:44.160Z,149895.88
2022-09-20T14:51:48.809Z,149912.69
2022-09-20T14:56:55.338Z,149817.06
2022-09-20T15:02:05.521Z,149787.31
2022-09-20T15:07:12.180Z,149826.09
2022-09-20T15:12:18.125Z,149904.91
2022-09-20T15:17:24.792Z,149893.28
2022-09-20T15:22:30.450Z,149802.84
2022-09-20T15:27:35.578Z,149811.91
2022-09-20T15:32:43.882Z,149686.53
2022-09-20T15:37:48.534Z,149612.91
2022-09-20T15:43:00.192Z,149677.47
2022-09-20T15:48:06.975Z,149668.44
2022-09-20T15:53:13.059Z,149596.16
2022-09-20T15:58:18.074Z,149525.13
2022-09-20T16:03:30.412Z,149476.09
2022-09-20T16:08:36.076Z,149421.84
2022-09-20T16:13:40.780Z,149300.50
2022-09-20T16:19:05.412Z,149273.44
2022-09-20T16:24:14.122Z,149211.53
2022-09-20T16:29:20.273Z,149163.81
2022-09-20T16:34:31.355Z,149103.19
2022-09-20T16:39:38.736Z,149079.97
2022-09-20T16:44:44.277Z,149081.25
2022-09-20T16:49:53.481Z,149081.25
2022-09-20T16:54:57.927Z,149074.81
2022-09-20T17:00:02.281Z,149046.44
2022-09-20T17:05:10.819Z,148967.84
2022-09-20T17:10:15.393Z,148880.22
2022-09-20T17:15:20.046Z,148889.19
2022-09-20T17:20:27.495Z,148819.66
2022-09-20T17:25:32.281Z,148810.63
2022-09-20T17:30:37.372Z,148782.31
2022-09-20T17:35:52.759Z,148772.00
2022-09-20T17:41:02.156Z,148775.84
2022-09-20T17:46:12.965Z,148757.81
2022-09-20T17:51:21.491Z,148757.81
2022-09-20T17:56:29.027Z,148786.16
2022-09-20T18:01:35.837Z,148788.72
2022-09-20T19:39:55.696Z,148490.03
2022-09-20T19:45:13.997Z,148488.69
2022-09-20T19:50:28.701Z,148496.44
2022-09-20T19:55:37.438Z,148492.59
2022-09-20T20:00:44.772Z,148526.06
2022-09-20T20:05:57.114Z,148524.78
2022-09-20T20:11:12.067Z,148502.88
2022-09-20T20:16:21.833Z,148465.56
2022-09-20T20:21:33.316Z,148439.84
2022-09-20T20:26:39.094Z,148426.97
2022-09-20T20:31:43.765Z,148460.44
2022-09-20T20:36:48.982Z,148457.88
2022-09-20T20:41:57.431Z,148468.09
2022-09-20T20:47:04.144Z,148437.28
2022-09-20T20:52:09.168Z,148410.22
2022-09-20T20:57:17.336Z,148441.13
2022-09-20T21:02:22.284Z,148426.97
2022-09-20T21:07:26.400Z,148456.53
2022-09-20T21:12:32.579Z,148417.97
2022-09-20T21:17:36.946Z,148397.38
2022-09-20T21:22:41.395Z,148376.78
2022-09-20T21:27:47.909Z,148394.81
2022-09-20T21:32:57.662Z,148417.97
2022-09-20T21:38:02.328Z,148388.38
2022-09-20T21:43:08.384Z,148344.63
2022-09-20T21:48:12.907Z,148349.81
2022-09-20T21:53:18.590Z,148376.78
2022-09-20T21:58:25.325Z,148387.09
2022-09-20T22:03:34.409Z,148390.94
2022-09-20T22:08:40.357Z,148384.53
2022-09-20T22:13:48.156Z,148403.84
2022-09-20T22:18:53.035Z,148412.78
2022-09-20T22:23:58.957Z,148402.50
2022-09-20T22:29:06.785Z,148416.69
2022-09-20T22:34:11.396Z,148437.28
2022-09-20T22:39:17.505Z,148415.41
2022-09-20T22:44:23.803Z,148424.38
2022-09-20T22:49:28.148Z,148420.53
2022-09-20T22:54:32.362Z,148376.78
2022-09-20T22:59:38.104Z,148352.38
2022-09-20T23:04:42.461Z,148352.38
2022-09-20T23:09:46.626Z,148388.38
2022-09-20T23:14:53.091Z,148397.38
2022-09-20T23:19:57.418Z,148405.13
2022-09-20T23:25:01.558Z,148303.47
2022-09-20T23:30:09.658Z,148333.06
2022-09-20T23:35:14.403Z,148304.75
2022-09-20T23:40:19.338Z,148308.63
2022-09-20T23:45:25.595Z,148228.88
2022-09-20T23:50:30.038Z,148196.69
2022-09-20T23:55:34.455Z,148181.28
